^^
Your Local Weather - Clay, NY Station Historical Data
Daily Summary for January 4, 2018 Units:  Both    English   Metric
« Previous Day
Next Day »
Daily Weekly Monthly Yearly Custom
  High: Low: Average:
Temperature: 20.8 °F /  -6.2 °C 9.0 °F /  -12.8 °C 16 °F /  -8.9 °C
Dew Point: 17.8 °F /  -7.9 °C 2.2 °F /  -16.6 °C 11.2 °F /  -11.6 °C
Humidity: 89% 62% 81%
Wind Speed: 4.0mph /  6.4km/h - 1.2mph /  1.9km/h
Wind Gust: 8.0mph /  12.9km/h - -
Wind- - NW
Pressure: 29.98 in /  1015.1 hPa 29.62 in /  1002.9 hPa -
Precipitation: 0.00 in /  0 mm    
Historical Graphs
 
 
Tabular Data for January 4, 2018
Time Temperature Dew Point Pressure Wind Wind Speed Wind Gust Humidity Rainfall Rate (Hourly) solar
00:08 12.9 °F /  -10.6 °C 2.3 °F /  -16.5 °C 29.98in /  1015.1hPa Calm   1.0mph /  1.6km/h 62% 0.00in /  0mm 0 W/m2
00:14 12.4 °F /  -10.9 °C 2.2 °F /  -16.6 °C 29.97in /  1014.8hPa Calm     63% 0.00in /  0mm 0 W/m2
00:26 11.9 °F /  -11.2 °C 2.7 °F /  -16.3 °C 29.96in /  1014.4hPa Calm     66% 0.00in /  0mm 0 W/m2
00:28 11.9 °F /  -11.2 °C 3.0 °F /  -16.1 °C 29.96in /  1014.4hPa Calm     67% 0.00in /  0mm 0 W/m2
00:40 11.6 °F /  -11.3 °C 3.1 °F /  -16.1 °C 29.96in /  1014.4hPa Calm     68% 0.00in /  0mm 0 W/m2
00:42 11.6 °F /  -11.3 °C 3.1 °F /  -16.1 °C 29.96in /  1014.4hPa Calm     68% 0.00in /  0mm 0 W/m2
00:48 11.5 °F /  -11.4 °C 3.3 °F /  -15.9 °C 29.95in /  1014.1hPa Calm     69% 0.00in /  0mm 0 W/m2
00:56 11.6 °F /  -11.3 °C 3.7 °F /  -15.7 °C 29.95in /  1014.1hPa Calm     70% 0.00in /  0mm 0 W/m2
01:02 11.7 °F /  -11.3 °C 3.8 °F /  -15.7 °C 29.95in /  1014.1hPa Calm     70% 0.00in /  0mm 0 W/m2
01:04 11.7 °F /  -11.3 °C 3.5 °F /  -15.8 °C 29.95in /  1014.1hPa Calm     69% 0.00in /  0mm 0 W/m2
01:08 11.7 °F /  -11.3 °C 3.5 °F /  -15.8 °C 29.94in /  1013.8hPa Calm     69% 0.00in /  0mm 0 W/m2
01:18 11.7 °F /  -11.3 °C 3.5 °F /  -15.8 °C 29.94in /  1013.8hPa Calm   1.0mph /  1.6km/h 69% 0.00in /  0mm 0 W/m2
01:24 11.9 °F /  -11.2 °C 3.7 °F /  -15.7 °C 29.94in /  1013.8hPa Calm     69% 0.00in /  0mm 0 W/m2
01:30 12.1 °F /  -11.1 °C 4.2 °F /  -15.4 °C 29.93in /  1013.4hPa Calm     70% 0.00in /  0mm 0 W/m2
01:34 12.2 °F /  -11 °C 4.6 °F /  -15.2 °C 29.94in /  1013.8hPa Calm     71% 0.00in /  0mm 0 W/m2
01:42 12.3 °F /  -10.9 °C 4.7 °F /  -15.2 °C 29.94in /  1013.8hPa Calm     71% 0.00in /  0mm 0 W/m2
01:48 12.5 °F /  -10.8 °C 5.2 °F /  -14.9 °C 29.94in /  1013.8hPa Calm     72% 0.00in /  0mm 0 W/m2
01:52 12.7 °F /  -10.7 °C 5.4 °F /  -14.8 °C 29.94in /  1013.8hPa Calm     72% 0.00in /  0mm 0 W/m2
01:56 12.9 °F /  -10.6 °C 5.9 °F /  -14.5 °C 29.94in /  1013.8hPa Calm     73% 0.00in /  0mm 0 W/m2
02:02 13.1 °F /  -10.5 °C 5.8 °F /  -14.6 °C 29.95in /  1014.1hPa Calm   1.0mph /  1.6km/h 72% 0.00in /  0mm 0 W/m2
02:08 13.3 °F /  -10.4 °C 6.0 °F /  -14.4 °C 29.95in /  1014.1hPa Calm   2.0mph /  3.2km/h 72% 0.00in /  0mm 0 W/m2
02:14 13.6 °F /  -10.2 °C 5.9 °F /  -14.5 °C 29.95in /  1014.1hPa Calm     71% 0.00in /  0mm 0 W/m2
02:18 13.7 °F /  -10.2 °C 5.7 °F /  -14.6 °C 29.95in /  1014.1hPa Calm     70% 0.00in /  0mm 0 W/m2
02:20 13.8 °F /  -10.1 °C 5.8 °F /  -14.6 °C 29.95in /  1014.1hPa Calm     70% 0.00in /  0mm 0 W/m2
02:24 13.9 °F /  -10.1 °C 6.2 °F /  -14.3 °C 29.95in /  1014.1hPa Calm     71% 0.00in /  0mm 0 W/m2
02:30 13.9 °F /  -10.1 °C 6.2 °F /  -14.3 °C 29.95in /  1014.1hPa Calm     71% 0.00in /  0mm 0 W/m2
02:36 13.9 °F /  -10.1 °C 6.2 °F /  -14.3 °C 29.94in /  1013.8hPa Calm     71% 0.00in /  0mm 0 W/m2
02:42 13.9 °F /  -10.1 °C 5.9 °F /  -14.5 °C 29.94in /  1013.8hPa Calm     70% 0.00in /  0mm 0 W/m2
02:48 14.1 °F /  -9.9 °C 6.1 °F /  -14.4 °C 29.93in /  1013.4hPa Calm     70% 0.00in /  0mm 0 W/m2
02:50 14.1 °F /  -9.9 °C 6.1 °F /  -14.4 °C 29.93in /  1013.4hPa Calm     70% 0.00in /  0mm 0 W/m2
02:52 14.0 °F /  -10 °C 6.0 °F /  -14.4 °C 29.93in /  1013.4hPa Calm     70% 0.00in /  0mm 0 W/m2
03:00 14.1 °F /  -9.9 °C 6.1 °F /  -14.4 °C 29.93in /  1013.4hPa Calm     70% 0.00in /  0mm 0 W/m2
03:06 13.9 °F /  -10.1 °C 6.2 °F /  -14.3 °C 29.93in /  1013.4hPa Calm     71% 0.00in /  0mm 0 W/m2
03:12 14.0 °F /  -10 °C 6.6 °F /  -14.1 °C 29.93in /  1013.4hPa Calm     72% 0.00in /  0mm 0 W/m2
03:18 14.0 °F /  -10 °C 6.6 °F /  -14.1 °C 29.93in /  1013.4hPa Calm     72% 0.00in /  0mm 0 W/m2
03:24 14.1 °F /  -9.9 °C 6.7 °F /  -14.1 °C 29.93in /  1013.4hPa Calm     72% 0.00in /  0mm 0 W/m2
03:28 14.2 °F /  -9.9 °C 6.8 °F /  -14 °C 29.93in /  1013.4hPa Calm     72% 0.00in /  0mm 0 W/m2
03:34 14.3 °F /  -9.8 °C 7.2 °F /  -13.8 °C 29.93in /  1013.4hPa Calm     73% 0.00in /  0mm 0 W/m2
03:38 14.3 °F /  -9.8 °C 7.2 °F /  -13.8 °C 29.92in /  1013.1hPa Calm     73% 0.00in /  0mm 0 W/m2
03:44 14.3 °F /  -9.8 °C 7.2 °F /  -13.8 °C 29.92in /  1013.1hPa Calm     73% 0.00in /  0mm 0 W/m2
03:50 14.3 °F /  -9.8 °C 7.2 °F /  -13.8 °C 29.92in /  1013.1hPa Calm     73% 0.00in /  0mm 0 W/m2
03:56 14.3 °F /  -9.8 °C 7.5 °F /  -13.6 °C 29.92in /  1013.1hPa Calm     74% 0.00in /  0mm 0 W/m2
04:02 14.3 °F /  -9.8 °C 7.5 °F /  -13.6 °C 29.92in /  1013.1hPa Calm     74% 0.00in /  0mm 0 W/m2
04:08 14.4 °F /  -9.8 °C 7.6 °F /  -13.6 °C 29.92in /  1013.1hPa Calm     74% 0.00in /  0mm 0 W/m2
04:12 14.5 °F /  -9.7 °C 7.7 °F /  -13.5 °C 29.92in /  1013.1hPa Calm     74% 0.00in /  0mm 0 W/m2
04:18 14.6 °F /  -9.7 °C 7.5 °F /  -13.6 °C 29.91in /  1012.8hPa Calm   1.0mph /  1.6km/h 73% 0.00in /  0mm 0 W/m2
04:24 14.7 °F /  -9.6 °C 7.6 °F /  -13.6 °C 29.91in /  1012.8hPa Calm     73% 0.00in /  0mm 0 W/m2
04:26 14.8 °F /  -9.6 °C 7.7 °F /  -13.5 °C 29.91in /  1012.8hPa Calm     73% 0.00in /  0mm 0 W/m2
04:30 14.8 °F /  -9.6 °C 7.7 °F /  -13.5 °C 29.90in /  1012.4hPa Calm     73% 0.00in /  0mm 0 W/m2
04:36 14.8 °F /  -9.6 °C 7.7 °F /  -13.5 °C 29.91in /  1012.8hPa Calm     73% 0.00in /  0mm 0 W/m2
04:42 14.8 °F /  -9.6 °C 7.7 °F /  -13.5 °C 29.90in /  1012.4hPa Calm     73% 0.00in /  0mm 0 W/m2
04:48 14.7 °F /  -9.6 °C 7.6 °F /  -13.6 °C 29.91in /  1012.8hPa Calm     73% 0.00in /  0mm 0 W/m2
04:56 14.7 °F /  -9.6 °C 7.6 °F /  -13.6 °C 29.90in /  1012.4hPa Calm     73% 0.00in /  0mm 0 W/m2
05:04 14.8 °F /  -9.6 °C 7.7 °F /  -13.5 °C 29.90in /  1012.4hPa Calm     73% 0.00in /  0mm 0 W/m2
05:10 14.9 °F /  -9.5 °C 7.5 °F /  -13.6 °C 29.89in /  1012.1hPa Calm     72% 0.00in /  0mm 0 W/m2
05:12 14.9 °F /  -9.5 °C 7.5 °F /  -13.6 °C 29.89in /  1012.1hPa Calm     72% 0.00in /  0mm 0 W/m2
05:18 14.9 °F /  -9.5 °C 7.8 °F /  -13.4 °C 29.89in /  1012.1hPa Calm     73% 0.00in /  0mm 0 W/m2
05:22 14.9 °F /  -9.5 °C 7.8 °F /  -13.4 °C 29.89in /  1012.1hPa Calm     73% 0.00in /  0mm 0 W/m2
05:30 14.9 °F /  -9.5 °C 7.8 °F /  -13.4 °C 29.88in /  1011.7hPa Calm     73% 0.00in /  0mm 0 W/m2
05:36 14.9 °F /  -9.5 °C 7.8 °F /  -13.4 °C 29.88in /  1011.7hPa Calm     73% 0.00in /  0mm 0 W/m2
05:44 14.9 °F /  -9.5 °C 7.8 °F /  -13.4 °C 29.87in /  1011.4hPa Calm     73% 0.00in /  0mm 0 W/m2
05:46 14.9 °F /  -9.5 °C 7.8 °F /  -13.4 °C 29.87in /  1011.4hPa Calm     73% 0.00in /  0mm 0 W/m2
05:52 14.8 °F /  -9.6 °C 7.7 °F /  -13.5 °C 29.87in /  1011.4hPa Calm     73% 0.00in /  0mm 0 W/m2
05:58 14.8 °F /  -9.6 °C 7.7 °F /  -13.5 °C 29.86in /  1011.1hPa Calm     73% 0.00in /  0mm 0 W/m2
06:06 14.7 °F /  -9.6 °C 7.9 °F /  -13.4 °C 29.86in /  1011.1hPa Calm     74% 0.00in /  0mm 0 W/m2
06:16 14.7 °F /  -9.6 °C 7.9 °F /  -13.4 °C 29.85in /  1010.7hPa Calm     74% 0.00in /  0mm 0 W/m2
06:32 14.8 °F /  -9.6 °C 8.3 °F /  -13.2 °C 29.84in /  1010.4hPa Calm     75% 0.00in /  0mm 0 W/m2
06:36 14.8 °F /  -9.6 °C 8.3 °F /  -13.2 °C 29.84in /  1010.4hPa Calm     75% 0.00in /  0mm 0 W/m2
06:42 14.8 °F /  -9.6 °C 8.3 °F /  -13.2 °C 29.83in /  1010hPa Calm     75% 0.00in /  0mm 0 W/m2
06:48 14.5 °F /  -9.7 °C 8.3 °F /  -13.2 °C 29.83in /  1010hPa Calm     76% 0.00in /  0mm 0 W/m2
06:54 14.3 °F /  -9.8 °C 8.4 °F /  -13.1 °C 29.83in /  1010hPa Calm     77% 0.00in /  0mm 0 W/m2
07:00 14.3 °F /  -9.8 °C 8.4 °F /  -13.1 °C 29.84in /  1010.4hPa Calm     77% 0.00in /  0mm 0 W/m2
07:06 14.2 °F /  -9.9 °C 8.3 °F /  -13.2 °C 29.84in /  1010.4hPa Calm     77% 0.00in /  0mm 0 W/m2
07:12 14.1 °F /  -9.9 °C 8.2 °F /  -13.2 °C 29.84in /  1010.4hPa Calm     77% 0.00in /  0mm 0 W/m2
07:18 14.1 °F /  -9.9 °C 8.5 °F /  -13.1 °C 29.84in /  1010.4hPa Calm     78% 0.00in /  0mm 0 W/m2
07:24 14.1 °F /  -9.9 °C 8.2 °F /  -13.2 °C 29.83in /  1010hPa Calm     77% 0.00in /  0mm 0 W/m2
07:30 14.1 °F /  -9.9 °C 8.5 °F /  -13.1 °C 29.82in /  1009.7hPa Calm     78% 0.00in /  0mm 0 W/m2
07:36 14.3 °F /  -9.8 °C 8.7 °F /  -12.9 °C 29.81in /  1009.4hPa Calm     78% 0.00in /  0mm 0 W/m2
07:42 14.4 °F /  -9.8 °C 8.8 °F /  -12.9 °C 29.81in /  1009.4hPa Calm     78% 0.00in /  0mm 0 W/m2
07:48 14.5 °F /  -9.7 °C 8.9 °F /  -12.8 °C 29.81in /  1009.4hPa Calm     78% 0.00in /  0mm 5 W/m2
07:54 14.6 °F /  -9.7 °C 9.3 °F /  -12.6 °C 29.80in /  1009hPa Calm     79% 0.00in /  0mm 9 W/m2
08:02 14.7 °F /  -9.6 °C 9.4 °F /  -12.6 °C 29.79in /  1008.7hPa Calm     79% 0.00in /  0mm 18 W/m2
08:08 14.7 °F /  -9.6 °C 9.4 °F /  -12.6 °C 29.79in /  1008.7hPa Calm     79% 0.00in /  0mm 26 W/m2
08:14 14.8 °F /  -9.6 °C 9.5 °F /  -12.5 °C 29.79in /  1008.7hPa Calm     79% 0.00in /  0mm 26 W/m2
08:16 14.9 °F /  -9.5 °C 9.6 °F /  -12.4 °C 29.79in /  1008.7hPa Calm     79% 0.00in /  0mm 26 W/m2
08:22 15.0 °F /  -9.4 °C 9.7 °F /  -12.4 °C 29.78in /  1008.4hPa Calm     79% 0.00in /  0mm 28 W/m2
08:28 15.2 °F /  -9.3 °C 9.9 °F /  -12.3 °C 29.78in /  1008.4hPa Calm     79% 0.00in /  0mm 32 W/m2
08:34 15.3 °F /  -9.3 °C 10.0 °F /  -12.2 °C 29.78in /  1008.4hPa Calm     79% 0.00in /  0mm 33 W/m2
08:42 15.5 °F /  -9.2 °C 10.1 °F /  -12.2 °C 29.78in /  1008.4hPa Calm     79% 0.00in /  0mm 33 W/m2
08:48 15.6 °F /  -9.1 °C 10.5 °F /  -11.9 °C 29.78in /  1008.4hPa Calm   1.0mph /  1.6km/h 80% 0.00in /  0mm 35 W/m2
08:54 15.7 °F /  -9.1 °C 10.6 °F /  -11.9 °C 29.78in /  1008.4hPa Calm     80% 0.00in /  0mm 37 W/m2
09:00 15.9 °F /  -8.9 °C 11.1 °F /  -11.6 °C 29.79in /  1008.7hPa Calm   1.0mph /  1.6km/h 81% 0.00in /  0mm 33 W/m2
09:08 16.0 °F /  -8.9 °C 11.5 °F /  -11.4 °C 29.79in /  1008.7hPa Calm   1.0mph /  1.6km/h 82% 0.00in /  0mm 35 W/m2
09:14 16.1 °F /  -8.8 °C 11.6 °F /  -11.3 °C 29.79in /  1008.7hPa SSE 1.0mph /  1.6km/h 2.0mph /  3.2km/h 82% 0.00in /  0mm 37 W/m2
09:22 16.3 °F /  -8.7 °C 12.0 °F /  -11.1 °C 29.79in /  1008.7hPa Calm   1.0mph /  1.6km/h 83% 0.00in /  0mm 49 W/m2
09:28 16.5 °F /  -8.6 °C 12.2 °F /  -11 °C 29.79in /  1008.7hPa Calm   1.0mph /  1.6km/h 83% 0.00in /  0mm 49 W/m2
09:40 17.0 °F /  -8.3 °C 13.0 °F /  -10.6 °C 29.78in /  1008.4hPa Calm   2.0mph /  3.2km/h 84% 0.00in /  0mm 54 W/m2
09:46 17.2 °F /  -8.2 °C 13.2 °F /  -10.4 °C 29.77in /  1008hPa Calm   2.0mph /  3.2km/h 84% 0.00in /  0mm 63 W/m2
09:48 17.3 °F /  -8.2 °C 13.3 °F /  -10.4 °C 29.77in /  1008hPa Calm   2.0mph /  3.2km/h 84% 0.00in /  0mm 69 W/m2
09:54 17.6 °F /  -8 °C 13.6 °F /  -10.2 °C 29.77in /  1008hPa Calm     84% 0.00in /  0mm 65 W/m2
10:00 17.7 °F /  -7.9 °C 13.7 °F /  -10.2 °C 29.77in /  1008hPa WSW 1.0mph /  1.6km/h 1.0mph /  1.6km/h 84% 0.00in /  0mm 60 W/m2
10:06 17.9 °F /  -7.8 °C 13.9 °F /  -10.1 °C 29.77in /  1008hPa WSW 1.0mph /  1.6km/h 2.0mph /  3.2km/h 84% 0.00in /  0mm 49 W/m2
10:08 18.0 °F /  -7.8 °C 14.0 °F /  -10 °C 29.77in /  1008hPa WSW 1.0mph /  1.6km/h 2.0mph /  3.2km/h 84% 0.00in /  0mm 53 W/m2
10:14 18.2 °F /  -7.7 °C 14.2 °F /  -9.9 °C 29.77in /  1008hPa WSW 1.0mph /  1.6km/h 1.0mph /  1.6km/h 84% 0.00in /  0mm 56 W/m2
10:16 18.2 °F /  -7.7 °C 14.2 °F /  -9.9 °C 29.77in /  1008hPa WSW 1.0mph /  1.6km/h 1.0mph /  1.6km/h 84% 0.00in /  0mm 56 W/m2
10:22 18.3 °F /  -7.6 °C 14.3 °F /  -9.8 °C 29.77in /  1008hPa WSW 1.0mph /  1.6km/h 1.0mph /  1.6km/h 84% 0.00in /  0mm 58 W/m2
10:24 18.4 °F /  -7.6 °C 14.4 °F /  -9.8 °C 29.77in /  1008hPa WSW 1.0mph /  1.6km/h 1.0mph /  1.6km/h 84% 0.00in /  0mm 60 W/m2
10:30 18.5 °F /  -7.5 °C 14.5 °F /  -9.7 °C 29.77in /  1008hPa WSW 1.0mph /  1.6km/h 1.0mph /  1.6km/h 84% 0.00in /  0mm 56 W/m2
10:40 18.7 °F /  -7.4 °C 14.7 °F /  -9.6 °C 29.76in /  1007.7hPa Calm     84% 0.00in /  0mm 56 W/m2
10:46 18.8 °F /  -7.3 °C 15.0 °F /  -9.4 °C 29.76in /  1007.7hPa Calm   1.0mph /  1.6km/h 85% 0.00in /  0mm 62 W/m2
11:00 19.1 °F /  -7.2 °C 15.1 °F /  -9.4 °C 29.75in /  1007.3hPa WSW 1.0mph /  1.6km/h 1.0mph /  1.6km/h 84% 0.00in /  0mm 60 W/m2
11:06 19.2 °F /  -7.1 °C 15.2 °F /  -9.3 °C 29.74in /  1007hPa Calm   1.0mph /  1.6km/h 84% 0.00in /  0mm 65 W/m2
11:12 19.3 °F /  -7.1 °C 15.5 °F /  -9.2 °C 29.74in /  1007hPa Calm   1.0mph /  1.6km/h 85% 0.00in /  0mm 69 W/m2
11:20 19.6 °F /  -6.9 °C 15.6 °F /  -9.1 °C 29.74in /  1007hPa NW 1.0mph /  1.6km/h 1.0mph /  1.6km/h 84% 0.00in /  0mm 84 W/m2
11:26 19.7 °F /  -6.8 °C 15.9 °F /  -8.9 °C 29.73in /  1006.7hPa NW 1.0mph /  1.6km/h 2.0mph /  3.2km/h 85% 0.00in /  0mm 84 W/m2
11:32 19.8 °F /  -6.8 °C 16.0 °F /  -8.9 °C 29.73in /  1006.7hPa NW 1.0mph /  1.6km/h 1.0mph /  1.6km/h 85% 0.00in /  0mm 81 W/m2
11:38 19.8 °F /  -6.8 °C 16.0 °F /  -8.9 °C 29.72in /  1006.3hPa NW 2.0mph /  3.2km/h 3.0mph /  4.8km/h 85% 0.00in /  0mm 93 W/m2
11:44 19.7 °F /  -6.8 °C 15.9 °F /  -8.9 °C 29.71in /  1006hPa NW 2.0mph /  3.2km/h 3.0mph /  4.8km/h 85% 0.00in /  0mm 91 W/m2
11:50 19.7 °F /  -6.8 °C 15.9 °F /  -8.9 °C 29.71in /  1006hPa NW 2.0mph /  3.2km/h 3.0mph /  4.8km/h 85% 0.00in /  0mm 98 W/m2
11:56 19.6 °F /  -6.9 °C 15.8 °F /  -9 °C 29.71in /  1006hPa NNW 3.0mph /  4.8km/h 4.0mph /  6.4km/h 85% 0.00in /  0mm 104 W/m2
12:04 19.5 °F /  -6.9 °C 15.7 °F /  -9.1 °C 29.70in /  1005.6hPa NW 3.0mph /  4.8km/h 3.0mph /  4.8km/h 85% 0.00in /  0mm 93 W/m2
12:06 19.5 °F /  -6.9 °C 15.7 °F /  -9.1 °C 29.70in /  1005.6hPa NW 2.0mph /  3.2km/h 3.0mph /  4.8km/h 85% 0.00in /  0mm 93 W/m2
12:12 19.4 °F /  -7 °C 15.9 °F /  -8.9 °C 29.69in /  1005.3hPa NW 3.0mph /  4.8km/h 7.0mph /  11.3km/h 86% 0.00in /  0mm 90 W/m2
12:14 19.3 °F /  -7.1 °C 15.8 °F /  -9 °C 29.69in /  1005.3hPa NW 3.0mph /  4.8km/h 7.0mph /  11.3km/h 86% 0.00in /  0mm 90 W/m2
12:22 19.3 °F /  -7.1 °C 15.8 °F /  -9 °C 29.69in /  1005.3hPa NNW 3.0mph /  4.8km/h 3.0mph /  4.8km/h 86% 0.00in /  0mm 102 W/m2
12:28 19.2 °F /  -7.1 °C 15.7 °F /  -9.1 °C 29.69in /  1005.3hPa NNW 3.0mph /  4.8km/h 3.0mph /  4.8km/h 86% 0.00in /  0mm 97 W/m2
12:34 19.2 °F /  -7.1 °C 15.7 °F /  -9.1 °C 29.68in /  1005hPa NNW 3.0mph /  4.8km/h 3.0mph /  4.8km/h 86% 0.00in /  0mm 104 W/m2
12:38 19.3 °F /  -7.1 °C 16.1 °F /  -8.8 °C 29.68in /  1005hPa NNW 3.0mph /  4.8km/h 4.0mph /  6.4km/h 87% 0.00in /  0mm 105 W/m2
12:42 19.3 °F /  -7.1 °C 16.1 °F /  -8.8 °C 29.68in /  1005hPa North 2.0mph /  3.2km/h 3.0mph /  4.8km/h 87% 0.00in /  0mm 116 W/m2
12:50 19.5 °F /  -6.9 °C 16.3 °F /  -8.7 °C 29.68in /  1005hPa North 1.0mph /  1.6km/h 1.0mph /  1.6km/h 87% 0.00in /  0mm 109 W/m2
12:56 19.6 °F /  -6.9 °C 16.4 °F /  -8.7 °C 29.67in /  1004.6hPa NNW 1.0mph /  1.6km/h 3.0mph /  4.8km/h 87% 0.00in /  0mm 111 W/m2
13:02 19.6 °F /  -6.9 °C 16.4 °F /  -8.7 °C 29.67in /  1004.6hPa NW 3.0mph /  4.8km/h 3.0mph /  4.8km/h 87% 0.00in /  0mm 107 W/m2
13:08 19.7 °F /  -6.8 °C 16.5 °F /  -8.6 °C 29.66in /  1004.3hPa NW 3.0mph /  4.8km/h 3.0mph /  4.8km/h 87% 0.00in /  0mm 120 W/m2
13:14 19.8 °F /  -6.8 °C 16.6 °F /  -8.6 °C 29.66in /  1004.3hPa NNW 2.0mph /  3.2km/h 4.0mph /  6.4km/h 87% 0.00in /  0mm 111 W/m2
13:22 20.0 °F /  -6.7 °C 16.8 °F /  -8.4 °C 29.66in /  1004.3hPa NNW 2.0mph /  3.2km/h 3.0mph /  4.8km/h 87% 0.00in /  0mm 107 W/m2
13:28 20.1 °F /  -6.6 °C 16.9 °F /  -8.4 °C 29.66in /  1004.3hPa NNW 3.0mph /  4.8km/h 3.0mph /  4.8km/h 87% 0.00in /  0mm 98 W/m2
13:38 20.2 °F /  -6.6 °C 17.0 °F /  -8.3 °C 29.65in /  1003.9hPa NNW 2.0mph /  3.2km/h 4.0mph /  6.4km/h 87% 0.00in /  0mm 91 W/m2
13:44 20.3 °F /  -6.5 °C 17.0 °F /  -8.3 °C 29.65in /  1003.9hPa NNW 2.0mph /  3.2km/h 2.0mph /  3.2km/h 87% 0.00in /  0mm 91 W/m2
13:50 20.6 °F /  -6.3 °C 17.3 °F /  -8.2 °C 29.64in /  1003.6hPa NNW 1.0mph /  1.6km/h 1.0mph /  1.6km/h 87% 0.00in /  0mm 91 W/m2
14:00 20.7 °F /  -6.3 °C 17.4 °F /  -8.1 °C 29.64in /  1003.6hPa NNW 2.0mph /  3.2km/h 2.0mph /  3.2km/h 87% 0.00in /  0mm 67 W/m2
14:06 20.8 °F /  -6.2 °C 17.5 °F /  -8.1 °C 29.64in /  1003.6hPa NNW 2.0mph /  3.2km/h 5.0mph /  8km/h 87% 0.00in /  0mm 51 W/m2
14:14 20.7 °F /  -6.3 °C 17.4 °F /  -8.1 °C 29.63in /  1003.3hPa NNW 3.0mph /  4.8km/h 3.0mph /  4.8km/h 87% 0.00in /  0mm 62 W/m2
14:24 20.7 °F /  -6.3 °C 17.4 °F /  -8.1 °C 29.63in /  1003.3hPa NNW 3.0mph /  4.8km/h 8.0mph /  12.9km/h 87% 0.00in /  0mm 47 W/m2
14:30 20.8 °F /  -6.2 °C 17.8 °F /  -7.9 °C 29.63in /  1003.3hPa NNW 4.0mph /  6.4km/h 5.0mph /  8km/h 88% 0.00in /  0mm 46 W/m2
14:36 20.8 °F /  -6.2 °C 17.8 °F /  -7.9 °C 29.63in /  1003.3hPa NNW 3.0mph /  4.8km/h 5.0mph /  8km/h 88% 0.00in /  0mm 37 W/m2
14:42 20.7 °F /  -6.3 °C 17.7 °F /  -7.9 °C 29.63in /  1003.3hPa NNW 3.0mph /  4.8km/h 6.0mph /  9.7km/h 88% 0.00in /  0mm 35 W/m2
14:48 20.7 °F /  -6.3 °C 17.7 °F /  -7.9 °C 29.63in /  1003.3hPa NW 3.0mph /  4.8km/h 6.0mph /  9.7km/h 88% 0.00in /  0mm 32 W/m2
14:50 20.7 °F /  -6.3 °C 17.7 °F /  -7.9 °C 29.63in /  1003.3hPa NW 3.0mph /  4.8km/h 3.0mph /  4.8km/h 88% 0.00in /  0mm 26 W/m2
14:56 20.7 °F /  -6.3 °C 17.7 °F /  -7.9 °C 29.63in /  1003.3hPa NW 2.0mph /  3.2km/h 3.0mph /  4.8km/h 88% 0.00in /  0mm 23 W/m2
15:02 20.6 °F /  -6.3 °C 17.6 °F /  -8 °C 29.63in /  1003.3hPa NW 3.0mph /  4.8km/h 4.0mph /  6.4km/h 88% 0.00in /  0mm 19 W/m2
15:12 20.3 °F /  -6.5 °C 17.3 °F /  -8.2 °C 29.63in /  1003.3hPa NW 4.0mph /  6.4km/h 4.0mph /  6.4km/h 88% 0.00in /  0mm 14 W/m2
15:18 20.2 °F /  -6.6 °C 17.2 °F /  -8.2 °C 29.63in /  1003.3hPa NW 3.0mph /  4.8km/h 4.0mph /  6.4km/h 88% 0.00in /  0mm 14 W/m2
15:30 20.1 °F /  -6.6 °C 17.1 °F /  -8.3 °C 29.63in /  1003.3hPa NW 2.0mph /  3.2km/h 2.0mph /  3.2km/h 88% 0.00in /  0mm 11 W/m2
15:34 20.0 °F /  -6.7 °C 17.0 °F /  -8.3 °C 29.63in /  1003.3hPa NW 2.0mph /  3.2km/h 4.0mph /  6.4km/h 88% 0.00in /  0mm 11 W/m2
15:40 20.0 °F /  -6.7 °C 16.8 °F /  -8.4 °C 29.63in /  1003.3hPa WNW 3.0mph /  4.8km/h 3.0mph /  4.8km/h 87% 0.00in /  0mm 9 W/m2
15:52 19.9 °F /  -6.7 °C 16.7 °F /  -8.5 °C 29.63in /  1003.3hPa NW 2.0mph /  3.2km/h 3.0mph /  4.8km/h 87% 0.00in /  0mm 5 W/m2
15:56 19.9 °F /  -6.7 °C 16.7 °F /  -8.5 °C 29.63in /  1003.3hPa WNW 2.0mph /  3.2km/h 3.0mph /  4.8km/h 87% 0.00in /  0mm 5 W/m2
16:34 19.6 °F /  -6.9 °C 16.4 °F /  -8.7 °C 29.63in /  1003.3hPa NNW 2.0mph /  3.2km/h 2.0mph /  3.2km/h 87% 0.00in /  0mm 0 W/m2
16:50 19.6 °F /  -6.9 °C 16.6 °F /  -8.6 °C 29.63in /  1003.3hPa WNW 2.0mph /  3.2km/h 2.0mph /  3.2km/h 88% 0.00in /  0mm 0 W/m2
16:56 19.6 °F /  -6.9 °C 16.6 °F /  -8.6 °C 29.63in /  1003.3hPa NW 2.0mph /  3.2km/h 3.0mph /  4.8km/h 88% 0.00in /  0mm 0 W/m2
17:00 19.6 °F /  -6.9 °C 16.6 °F /  -8.6 °C 29.63in /  1003.3hPa NNW 2.0mph /  3.2km/h 2.0mph /  3.2km/h 88% 0.00in /  0mm 0 W/m2
17:08 19.6 °F /  -6.9 °C 16.6 °F /  -8.6 °C 29.63in /  1003.3hPa WNW 2.0mph /  3.2km/h 6.0mph /  9.7km/h 88% 0.00in /  0mm 0 W/m2
17:14 19.6 °F /  -6.9 °C 16.6 °F /  -8.6 °C 29.62in /  1002.9hPa WNW 3.0mph /  4.8km/h 4.0mph /  6.4km/h 88% 0.00in /  0mm 0 W/m2
17:20 19.5 °F /  -6.9 °C 16.5 °F /  -8.6 °C 29.63in /  1003.3hPa NW 3.0mph /  4.8km/h 3.0mph /  4.8km/h 88% 0.00in /  0mm 0 W/m2
17:26 19.5 °F /  -6.9 °C 16.5 °F /  -8.6 °C 29.63in /  1003.3hPa WNW 2.0mph /  3.2km/h 3.0mph /  4.8km/h 88% 0.00in /  0mm 0 W/m2
17:38 19.3 °F /  -7.1 °C 16.3 °F /  -8.7 °C 29.63in /  1003.3hPa NW 3.0mph /  4.8km/h 3.0mph /  4.8km/h 88% 0.00in /  0mm 0 W/m2
17:42 19.3 °F /  -7.1 °C 16.6 °F /  -8.6 °C 29.63in /  1003.3hPa WNW 3.0mph /  4.8km/h 3.0mph /  4.8km/h 89% 0.00in /  0mm 0 W/m2
17:46 19.2 °F /  -7.1 °C 16.5 °F /  -8.6 °C 29.63in /  1003.3hPa WNW 2.0mph /  3.2km/h 3.0mph /  4.8km/h 89% 0.00in /  0mm 0 W/m2
17:48 19.1 °F /  -7.2 °C 16.4 °F /  -8.7 °C 29.63in /  1003.3hPa WNW 2.0mph /  3.2km/h 3.0mph /  4.8km/h 89% 0.00in /  0mm 0 W/m2
17:52 19.1 °F /  -7.2 °C 16.1 °F /  -8.8 °C 29.63in /  1003.3hPa NW 2.0mph /  3.2km/h 3.0mph /  4.8km/h 88% 0.00in /  0mm 0 W/m2
17:58 18.9 °F /  -7.3 °C 16.2 °F /  -8.8 °C 29.63in /  1003.3hPa NW 3.0mph /  4.8km/h 3.0mph /  4.8km/h 89% 0.00in /  0mm 0 W/m2
18:02 18.8 °F /  -7.3 °C 16.1 °F /  -8.8 °C 29.63in /  1003.3hPa NW 3.0mph /  4.8km/h 3.0mph /  4.8km/h 89% 0.00in /  0mm 0 W/m2
18:08 18.7 °F /  -7.4 °C 15.7 °F /  -9.1 °C 29.63in /  1003.3hPa NNW 3.0mph /  4.8km/h 6.0mph /  9.7km/h 88% 0.00in /  0mm 0 W/m2
18:12 18.6 °F /  -7.4 °C 15.6 °F /  -9.1 °C 29.63in /  1003.3hPa NW 3.0mph /  4.8km/h 3.0mph /  4.8km/h 88% 0.00in /  0mm 0 W/m2
18:20 18.5 °F /  -7.5 °C 15.5 °F /  -9.2 °C 29.63in /  1003.3hPa WNW 2.0mph /  3.2km/h 3.0mph /  4.8km/h 88% 0.00in /  0mm 0 W/m2
18:26 18.4 °F /  -7.6 °C 15.4 °F /  -9.2 °C 29.63in /  1003.3hPa NW 2.0mph /  3.2km/h 3.0mph /  4.8km/h 88% 0.00in /  0mm 0 W/m2
18:32 18.4 °F /  -7.6 °C 15.7 °F /  -9.1 °C 29.63in /  1003.3hPa WNW 1.0mph /  1.6km/h 3.0mph /  4.8km/h 89% 0.00in /  0mm 0 W/m2
18:38 18.3 °F /  -7.6 °C 15.6 °F /  -9.1 °C 29.64in /  1003.6hPa NW 2.0mph /  3.2km/h 4.0mph /  6.4km/h 89% 0.00in /  0mm 0 W/m2
18:44 18.2 °F /  -7.7 °C 15.5 °F /  -9.2 °C 29.64in /  1003.6hPa NW 2.0mph /  3.2km/h 6.0mph /  9.7km/h 89% 0.00in /  0mm 0 W/m2
18:46 18.3 °F /  -7.6 °C 15.6 °F /  -9.1 °C 29.64in /  1003.6hPa WNW 2.0mph /  3.2km/h 6.0mph /  9.7km/h 89% 0.00in /  0mm 0 W/m2
18:54 18.2 °F /  -7.7 °C 15.5 °F /  -9.2 °C 29.64in /  1003.6hPa WNW 2.0mph /  3.2km/h 6.0mph /  9.7km/h 89% 0.00in /  0mm 0 W/m2
18:58 18.1 °F /  -7.7 °C 15.4 °F /  -9.2 °C 29.64in /  1003.6hPa NW 2.0mph /  3.2km/h 6.0mph /  9.7km/h 89% 0.00in /  0mm 0 W/m2
19:04 18.0 °F /  -7.8 °C 15.0 °F /  -9.4 °C 29.64in /  1003.6hPa NW 3.0mph /  4.8km/h 5.0mph /  8km/h 88% 0.00in /  0mm 0 W/m2
19:12 17.8 °F /  -7.9 °C 14.8 °F /  -9.6 °C 29.64in /  1003.6hPa WNW 3.0mph /  4.8km/h 7.0mph /  11.3km/h 88% 0.00in /  0mm 0 W/m2
19:18 17.7 °F /  -7.9 °C 14.8 °F /  -9.6 °C 29.64in /  1003.6hPa NW 3.0mph /  4.8km/h 7.0mph /  11.3km/h 88% 0.00in /  0mm 0 W/m2
19:24 17.5 °F /  -8.1 °C 14.6 °F /  -9.7 °C 29.65in /  1003.9hPa West 3.0mph /  4.8km/h 4.0mph /  6.4km/h 88% 0.00in /  0mm 0 W/m2
19:30 17.3 °F /  -8.2 °C 14.4 °F /  -9.8 °C 29.65in /  1003.9hPa NNW 3.0mph /  4.8km/h 3.0mph /  4.8km/h 88% 0.00in /  0mm 0 W/m2
19:44 17.0 °F /  -8.3 °C 14.1 °F /  -9.9 °C 29.65in /  1003.9hPa NW 2.0mph /  3.2km/h 2.0mph /  3.2km/h 88% 0.00in /  0mm 0 W/m2
19:58 16.8 °F /  -8.4 °C 13.9 °F /  -10.1 °C 29.65in /  1003.9hPa WNW 2.0mph /  3.2km/h 2.0mph /  3.2km/h 88% 0.00in /  0mm 0 W/m2
20:08 16.5 °F /  -8.6 °C 13.6 °F /  -10.2 °C 29.65in /  1003.9hPa NW 3.0mph /  4.8km/h 4.0mph /  6.4km/h 88% 0.00in /  0mm 0 W/m2
20:14 16.2 °F /  -8.8 °C 13.3 °F /  -10.4 °C 29.65in /  1003.9hPa NW 3.0mph /  4.8km/h 3.0mph /  4.8km/h 88% 0.00in /  0mm 0 W/m2
20:26 15.9 °F /  -8.9 °C 13.0 °F /  -10.6 °C 29.65in /  1003.9hPa West 1.0mph /  1.6km/h 5.0mph /  8km/h 88% 0.00in /  0mm 0 W/m2
20:32 15.7 °F /  -9.1 °C 12.8 °F /  -10.7 °C 29.65in /  1003.9hPa NNW 2.0mph /  3.2km/h 2.0mph /  3.2km/h 88% 0.00in /  0mm 0 W/m2
20:38 15.6 °F /  -9.1 °C 12.7 °F /  -10.7 °C 29.65in /  1003.9hPa NW 2.0mph /  3.2km/h 2.0mph /  3.2km/h 88% 0.00in /  0mm 0 W/m2
20:44 15.5 °F /  -9.2 °C 12.6 °F /  -10.8 °C 29.66in /  1004.3hPa WNW 1.0mph /  1.6km/h 2.0mph /  3.2km/h 88% 0.00in /  0mm 0 W/m2
20:50 15.3 °F /  -9.3 °C 12.4 °F /  -10.9 °C 29.66in /  1004.3hPa NW 2.0mph /  3.2km/h 2.0mph /  3.2km/h 88% 0.00in /  0mm 0 W/m2
20:52 15.2 °F /  -9.3 °C 12.3 °F /  -10.9 °C 29.66in /  1004.3hPa NNW 3.0mph /  4.8km/h 3.0mph /  4.8km/h 88% 0.00in /  0mm 0 W/m2
21:04 14.7 °F /  -9.6 °C 11.8 °F /  -11.2 °C 29.66in /  1004.3hPa WNW 3.0mph /  4.8km/h 5.0mph /  8km/h 88% 0.00in /  0mm 0 W/m2
21:10 14.5 °F /  -9.7 °C 11.6 °F /  -11.3 °C 29.66in /  1004.3hPa NW 3.0mph /  4.8km/h 3.0mph /  4.8km/h 88% 0.00in /  0mm 0 W/m2
21:18 14.3 °F /  -9.8 °C 11.4 °F /  -11.4 °C 29.66in /  1004.3hPa WNW 2.0mph /  3.2km/h 4.0mph /  6.4km/h 88% 0.00in /  0mm 0 W/m2
21:24 14.0 °F /  -10 °C 10.8 °F /  -11.8 °C 29.66in /  1004.3hPa North 3.0mph /  4.8km/h 7.0mph /  11.3km/h 87% 0.00in /  0mm 0 W/m2
21:30 13.8 °F /  -10.1 °C 10.6 °F /  -11.9 °C 29.66in /  1004.3hPa NW 3.0mph /  4.8km/h 3.0mph /  4.8km/h 87% 0.00in /  0mm 0 W/m2
21:38 13.4 °F /  -10.3 °C 10.3 °F /  -12.1 °C 29.67in /  1004.6hPa NW 2.0mph /  3.2km/h 4.0mph /  6.4km/h 87% 0.00in /  0mm 0 W/m2
21:44 13.1 °F /  -10.5 °C 10.0 °F /  -12.2 °C 29.67in /  1004.6hPa West 3.0mph /  4.8km/h 5.0mph /  8km/h 87% 0.00in /  0mm 0 W/m2
21:54 12.7 °F /  -10.7 °C 9.6 °F /  -12.4 °C 29.67in /  1004.6hPa North 3.0mph /  4.8km/h 4.0mph /  6.4km/h 87% 0.00in /  0mm 0 W/m2
22:00 12.5 °F /  -10.8 °C 9.4 °F /  -12.6 °C 29.67in /  1004.6hPa WNW 3.0mph /  4.8km/h 3.0mph /  4.8km/h 87% 0.00in /  0mm 0 W/m2
22:06 12.3 °F /  -10.9 °C 9.2 °F /  -12.7 °C 29.67in /  1004.6hPa NW 3.0mph /  4.8km/h 6.0mph /  9.7km/h 87% 0.00in /  0mm 0 W/m2
22:12 12.2 °F /  -11 °C 8.8 °F /  -12.9 °C 29.67in /  1004.6hPa NNW 4.0mph /  6.4km/h 6.0mph /  9.7km/h 86% 0.00in /  0mm 0 W/m2
22:18 12.1 °F /  -11.1 °C 8.7 °F /  -12.9 °C 29.67in /  1004.6hPa NNW 3.0mph /  4.8km/h 6.0mph /  9.7km/h 86% 0.00in /  0mm 0 W/m2
22:26 12.0 °F /  -11.1 °C 8.9 °F /  -12.8 °C 29.68in /  1005hPa NNW 2.0mph /  3.2km/h 3.0mph /  4.8km/h 87% 0.00in /  0mm 0 W/m2
22:38 11.8 °F /  -11.2 °C 8.4 °F /  -13.1 °C 29.68in /  1005hPa NW 2.0mph /  3.2km/h 3.0mph /  4.8km/h 86% 0.00in /  0mm 0 W/m2
22:46 11.7 °F /  -11.3 °C 8.3 °F /  -13.2 °C 29.68in /  1005hPa NW 3.0mph /  4.8km/h 3.0mph /  4.8km/h 86% 0.00in /  0mm 0 W/m2
22:56 11.4 °F /  -11.4 °C 8.0 °F /  -13.3 °C 29.68in /  1005hPa NW 3.0mph /  4.8km/h 3.0mph /  4.8km/h 86% 0.00in /  0mm 0 W/m2
23:02 11.3 °F /  -11.5 °C 7.9 °F /  -13.4 °C 29.68in /  1005hPa NW 2.0mph /  3.2km/h 5.0mph /  8km/h 86% 0.00in /  0mm 0 W/m2
23:08 11.2 °F /  -11.6 °C 7.8 °F /  -13.4 °C 29.68in /  1005hPa NW 2.0mph /  3.2km/h 5.0mph /  8km/h 86% 0.00in /  0mm 0 W/m2
23:16 10.8 °F /  -11.8 °C 7.4 °F /  -13.7 °C 29.68in /  1005hPa NW 4.0mph /  6.4km/h 8.0mph /  12.9km/h 86% 0.00in /  0mm 0 W/m2
23:22 10.6 °F /  -11.9 °C 7.2 °F /  -13.8 °C 29.68in /  1005hPa NW 3.0mph /  4.8km/h 5.0mph /  8km/h 86% 0.00in /  0mm 0 W/m2
23:28 10.3 °F /  -12.1 °C 6.9 °F /  -13.9 °C 29.69in /  1005.3hPa NNW 2.0mph /  3.2km/h 5.0mph /  8km/h 86% 0.00in /  0mm 0 W/m2
23:34 10.2 °F /  -12.1 °C 6.8 °F /  -14 °C 29.69in /  1005.3hPa NW 2.0mph /  3.2km/h 2.0mph /  3.2km/h 86% 0.00in /  0mm 0 W/m2
23:40 9.9 °F /  -12.3 °C 6.6 °F /  -14.1 °C 29.69in /  1005.3hPa NW 2.0mph /  3.2km/h 2.0mph /  3.2km/h 86% 0.00in /  0mm 0 W/m2
23:46 9.5 °F /  -12.5 °C 6.2 °F /  -14.3 °C 29.69in /  1005.3hPa WNW 3.0mph /  4.8km/h 4.0mph /  6.4km/h 86% 0.00in /  0mm 0 W/m2
23:52 9.2 °F /  -12.7 °C 5.9 °F /  -14.5 °C 29.69in /  1005.3hPa WNW 2.0mph /  3.2km/h 3.0mph /  4.8km/h 86% 0.00in /  0mm 0 W/m2
23:58 9.0 °F /  -12.8 °C 5.7 °F /  -14.6 °C 29.70in /  1005.6hPa NW 2.0mph /  3.2km/h 3.0mph /  4.8km/h 86% 0.00in /  0mm 0 W/m2
Country Meadow, Clay, NY, USA
Compliments of Weather Underground - 2 mb